sensor_id;sensor_type;location;lat;lon;timestamp;P1;durP1;ratioP1;P2;durP2;ratioP2
15946;SDS011;8072;52.554;7.966;2023-03-05T00:01:19;11.00;;;1.87;;
15946;SDS011;8072;52.554;7.966;2023-03-05T00:03:48;8.97;;;2.60;;
15946;SDS011;8072;52.554;7.966;2023-03-05T00:06:16;10.00;;;2.40;;
15946;SDS011;8072;52.554;7.966;2023-03-05T00:08:43;8.13;;;2.13;;
15946;SDS011;8072;52.554;7.966;2023-03-05T00:11:09;5.63;;;1.70;;
15946;SDS011;8072;52.554;7.966;2023-03-05T00:13:36;9.20;;;2.33;;
15946;SDS011;8072;52.554;7.966;2023-03-05T00:16:03;7.47;;;2.23;;
15946;SDS011;8072;52.554;7.966;2023-03-05T00:18:30;7.73;;;2.33;;
15946;SDS011;8072;52.554;7.966;2023-03-05T00:20:56;8.97;;;2.40;;
15946;SDS011;8072;52.554;7.966;2023-03-05T00:23:22;9.23;;;2.30;;
15946;SDS011;8072;52.554;7.966;2023-03-05T00:25:48;9.67;;;2.13;;
15946;SDS011;8072;52.554;7.966;2023-03-05T00:28:14;6.13;;;1.97;;
15946;SDS011;8072;52.554;7.966;2023-03-05T00:30:40;11.30;;;2.67;;
15946;SDS011;8072;52.554;7.966;2023-03-05T00:33:06;6.57;;;2.27;;
15946;SDS011;8072;52.554;7.966;2023-03-05T00:35:43;11.60;;;2.37;;
15946;SDS011;8072;52.554;7.966;2023-03-05T00:38:10;7.07;;;2.30;;
15946;SDS011;8072;52.554;7.966;2023-03-05T00:40:37;10.47;;;2.40;;
15946;SDS011;8072;52.554;7.966;2023-03-05T00:43:04;5.70;;;2.20;;
15946;SDS011;8072;52.554;7.966;2023-03-05T00:45:31;11.60;;;2.63;;
15946;SDS011;8072;52.554;7.966;2023-03-05T00:47:57;6.77;;;2.33;;
15946;SDS011;8072;52.554;7.966;2023-03-05T00:50:24;5.83;;;2.10;;
15946;SDS011;8072;52.554;7.966;2023-03-05T00:52:50;10.00;;;2.60;;
15946;SDS011;8072;52.554;7.966;2023-03-05T00:55:16;7.63;;;2.40;;
15946;SDS011;8072;52.554;7.966;2023-03-05T00:57:42;9.40;;;2.43;;
15946;SDS011;8072;52.554;7.966;2023-03-05T01:00:08;6.97;;;2.00;;
15946;SDS011;8072;52.554;7.966;2023-03-05T01:02:34;6.50;;;2.33;;
15946;SDS011;8072;52.554;7.966;2023-03-05T01:05:00;6.63;;;2.03;;
15946;SDS011;8072;52.554;7.966;2023-03-05T01:07:25;7.47;;;2.17;;
15946;SDS011;8072;52.554;7.966;2023-03-05T01:09:51;5.27;;;2.13;;
15946;SDS011;8072;52.554;7.966;2023-03-05T01:12:17;10.50;;;2.37;;
15946;SDS011;8072;52.554;7.966;2023-03-05T01:14:43;6.57;;;2.30;;
15946;SDS011;8072;52.554;7.966;2023-03-05T01:17:08;6.57;;;2.40;;
15946;SDS011;8072;52.554;7.966;2023-03-05T01:19:34;6.73;;;2.17;;
15946;SDS011;8072;52.554;7.966;2023-03-05T01:22:00;5.80;;;2.00;;
15946;SDS011;8072;52.554;7.966;2023-03-05T01:24:25;8.77;;;2.63;;
15946;SDS011;8072;52.554;7.966;2023-03-05T01:26:51;6.53;;;2.40;;
15946;SDS011;8072;52.554;7.966;2023-03-05T01:29:17;6.20;;;2.27;;
15946;SDS011;8072;52.554;7.966;2023-03-05T01:31:43;7.47;;;2.33;;
15946;SDS011;8072;52.554;7.966;2023-03-05T01:34:09;7.43;;;2.57;;
15946;SDS011;8072;52.554;7.966;2023-03-05T01:36:35;7.53;;;2.43;;
15946;SDS011;8072;52.554;7.966;2023-03-05T01:39:00;7.97;;;2.10;;
15946;SDS011;8072;52.554;7.966;2023-03-05T01:41:26;10.03;;;2.60;;
15946;SDS011;8072;52.554;7.966;2023-03-05T01:43:52;6.87;;;2.20;;
15946;SDS011;8072;52.554;7.966;2023-03-05T01:46:32;6.80;;;2.20;;
15946;SDS011;8072;52.554;7.966;2023-03-05T01:51:36;7.10;;;2.03;;
15946;SDS011;8072;52.554;7.966;2023-03-05T01:54:27;6.57;;;2.23;;
15946;SDS011;8072;52.554;7.966;2023-03-05T01:56:58;12.53;;;2.37;;
15946;SDS011;8072;52.554;7.966;2023-03-05T01:59:28;7.33;;;2.03;;
15946;SDS011;8072;52.554;7.966;2023-03-05T02:01:55;4.13;;;1.80;;
15946;SDS011;8072;52.554;7.966;2023-03-05T02:04:25;4.10;;;1.80;;
15946;SDS011;8072;52.554;7.966;2023-03-05T02:06:56;4.90;;;1.90;;
15946;SDS011;8072;52.554;7.966;2023-03-05T02:09:22;6.07;;;2.30;;
15946;SDS011;8072;52.554;7.966;2023-03-05T02:11:50;2.13;;;1.70;;
15946;SDS011;8072;52.554;7.966;2023-03-05T02:14:16;8.00;;;2.20;;
15946;SDS011;8072;52.554;7.966;2023-03-05T02:16:44;6.07;;;1.97;;
15946;SDS011;8072;52.554;7.966;2023-03-05T02:19:10;6.60;;;2.00;;
15946;SDS011;8072;52.554;7.966;2023-03-05T02:21:39;6.67;;;2.40;;
15946;SDS011;8072;52.554;7.966;2023-03-05T02:24:18;5.73;;;2.00;;
15946;SDS011;8072;52.554;7.966;2023-03-05T02:26:59;8.87;;;2.23;;
15946;SDS011;8072;52.554;7.966;2023-03-05T02:29:26;4.37;;;2.27;;
15946;SDS011;8072;52.554;7.966;2023-03-05T02:31:54;7.93;;;1.93;;
15946;SDS011;8072;52.554;7.966;2023-03-05T02:34:21;5.87;;;1.93;;
15946;SDS011;8072;52.554;7.966;2023-03-05T02:36:47;8.07;;;2.43;;
15946;SDS011;8072;52.554;7.966;2023-03-05T02:39:15;7.70;;;2.17;;
15946;SDS011;8072;52.554;7.966;2023-03-05T02:41:41;5.37;;;2.03;;
15946;SDS011;8072;52.554;7.966;2023-03-05T02:44:07;3.77;;;2.07;;
15946;SDS011;8072;52.554;7.966;2023-03-05T02:46:34;2.40;;;1.77;;
15946;SDS011;8072;52.554;7.966;2023-03-05T02:49:00;6.33;;;2.03;;
15946;SDS011;8072;52.554;7.966;2023-03-05T02:51:25;5.83;;;2.17;;
15946;SDS011;8072;52.554;7.966;2023-03-05T02:53:51;8.13;;;2.50;;
15946;SDS011;8072;52.554;7.966;2023-03-05T02:56:17;4.93;;;1.63;;
15946;SDS011;8072;52.554;7.966;2023-03-05T02:58:43;5.00;;;2.17;;
15946;SDS011;8072;52.554;7.966;2023-03-05T03:01:09;5.53;;;2.50;;
15946;SDS011;8072;52.554;7.966;2023-03-05T03:03:35;10.07;;;2.10;;
15946;SDS011;8072;52.554;7.966;2023-03-05T03:06:01;6.97;;;1.80;;
15946;SDS011;8072;52.554;7.966;2023-03-05T03:08:27;8.47;;;2.13;;
15946;SDS011;8072;52.554;7.966;2023-03-05T03:10:53;2.27;;;1.87;;
15946;SDS011;8072;52.554;7.966;2023-03-05T03:13:21;3.63;;;1.57;;
15946;SDS011;8072;52.554;7.966;2023-03-05T03:16:00;6.00;;;1.83;;
15946;SDS011;8072;52.554;7.966;2023-03-05T03:18:26;4.67;;;2.10;;
15946;SDS011;8072;52.554;7.966;2023-03-05T03:20:52;4.80;;;1.70;;
15946;SDS011;8072;52.554;7.966;2023-03-05T03:23:18;6.30;;;2.03;;
15946;SDS011;8072;52.554;7.966;2023-03-05T03:25:44;6.07;;;1.87;;
15946;SDS011;8072;52.554;7.966;2023-03-05T03:28:10;6.17;;;1.77;;
15946;SDS011;8072;52.554;7.966;2023-03-05T03:30:35;6.20;;;1.60;;
15946;SDS011;8072;52.554;7.966;2023-03-05T03:33:02;6.87;;;1.83;;
15946;SDS011;8072;52.554;7.966;2023-03-05T03:35:28;6.37;;;1.77;;
15946;SDS011;8072;52.554;7.966;2023-03-05T03:37:53;5.87;;;1.60;;
15946;SDS011;8072;52.554;7.966;2023-03-05T03:40:19;6.37;;;1.97;;
15946;SDS011;8072;52.554;7.966;2023-03-05T03:42:45;5.63;;;2.10;;
15946;SDS011;8072;52.554;7.966;2023-03-05T03:45:11;7.73;;;1.50;;
15946;SDS011;8072;52.554;7.966;2023-03-05T03:47:37;5.87;;;2.00;;
15946;SDS011;8072;52.554;7.966;2023-03-05T03:50:03;10.47;;;1.83;;
15946;SDS011;8072;52.554;7.966;2023-03-05T03:52:29;4.47;;;2.10;;
15946;SDS011;8072;52.554;7.966;2023-03-05T03:54:54;4.80;;;1.83;;
15946;SDS011;8072;52.554;7.966;2023-03-05T03:57:25;4.27;;;1.97;;
15946;SDS011;8072;52.554;7.966;2023-03-05T03:59:55;3.23;;;1.90;;
15946;SDS011;8072;52.554;7.966;2023-03-05T04:02:21;6.63;;;2.10;;
15946;SDS011;8072;52.554;7.966;2023-03-05T04:04:46;3.10;;;2.00;;
15946;SDS011;8072;52.554;7.966;2023-03-05T04:07:12;4.60;;;1.83;;
15946;SDS011;8072;52.554;7.966;2023-03-05T04:09:39;3.87;;;1.93;;
15946;SDS011;8072;52.554;7.966;2023-03-05T04:12:05;4.53;;;1.90;;
15946;SDS011;8072;52.554;7.966;2023-03-05T04:14:31;2.90;;;1.60;;
15946;SDS011;8072;52.554;7.966;2023-03-05T04:16:57;7.23;;;1.83;;
15946;SDS011;8072;52.554;7.966;2023-03-05T04:19:23;6.53;;;2.37;;
15946;SDS011;8072;52.554;7.966;2023-03-05T04:21:48;4.03;;;1.60;;
15946;SDS011;8072;52.554;7.966;2023-03-05T04:24:14;4.13;;;2.07;;
15946;SDS011;8072;52.554;7.966;2023-03-05T04:26:40;3.37;;;1.80;;
15946;SDS011;8072;52.554;7.966;2023-03-05T04:29:06;4.63;;;1.97;;
15946;SDS011;8072;52.554;7.966;2023-03-05T04:31:31;4.17;;;1.90;;
15946;SDS011;8072;52.554;7.966;2023-03-05T04:33:58;5.03;;;2.10;;
15946;SDS011;8072;52.554;7.966;2023-03-05T04:36:24;4.50;;;2.07;;
15946;SDS011;8072;52.554;7.966;2023-03-05T04:38:50;5.57;;;1.83;;
15946;SDS011;8072;52.554;7.966;2023-03-05T04:41:16;6.23;;;2.07;;
15946;SDS011;8072;52.554;7.966;2023-03-05T04:43:45;6.60;;;2.37;;
15946;SDS011;8072;52.554;7.966;2023-03-05T04:46:11;7.80;;;2.23;;
15946;SDS011;8072;52.554;7.966;2023-03-05T04:48:37;4.70;;;2.50;;
15946;SDS011;8072;52.554;7.966;2023-03-05T04:51:02;4.13;;;1.90;;
15946;SDS011;8072;52.554;7.966;2023-03-05T04:53:28;2.47;;;2.03;;
15946;SDS011;8072;52.554;7.966;2023-03-05T04:55:54;4.20;;;2.17;;
15946;SDS011;8072;52.554;7.966;2023-03-05T04:58:20;2.80;;;2.23;;
15946;SDS011;8072;52.554;7.966;2023-03-05T05:00:51;7.30;;;2.27;;
15946;SDS011;8072;52.554;7.966;2023-03-05T05:03:17;4.47;;;2.10;;
15946;SDS011;8072;52.554;7.966;2023-03-05T05:05:44;4.27;;;2.30;;
15946;SDS011;8072;52.554;7.966;2023-03-05T05:08:15;6.53;;;2.30;;
15946;SDS011;8072;52.554;7.966;2023-03-05T05:10:40;9.87;;;2.40;;
15946;SDS011;8072;52.554;7.966;2023-03-05T05:13:06;8.33;;;2.33;;
15946;SDS011;8072;52.554;7.966;2023-03-05T05:15:32;3.10;;;2.27;;
15946;SDS011;8072;52.554;7.966;2023-03-05T05:17:58;3.97;;;2.20;;
15946;SDS011;8072;52.554;7.966;2023-03-05T05:20:29;4.87;;;2.43;;
15946;SDS011;8072;52.554;7.966;2023-03-05T05:22:55;5.07;;;2.30;;
15946;SDS011;8072;52.554;7.966;2023-03-05T05:25:21;6.53;;;2.40;;
15946;SDS011;8072;52.554;7.966;2023-03-05T05:27:47;6.93;;;2.03;;
15946;SDS011;8072;52.554;7.966;2023-03-05T05:30:12;4.77;;;2.37;;
15946;SDS011;8072;52.554;7.966;2023-03-05T05:32:38;6.57;;;2.20;;
15946;SDS011;8072;52.554;7.966;2023-03-05T05:35:04;3.87;;;2.47;;
15946;SDS011;8072;52.554;7.966;2023-03-05T05:37:30;5.03;;;2.47;;
15946;SDS011;8072;52.554;7.966;2023-03-05T05:39:56;7.20;;;2.63;;
15946;SDS011;8072;52.554;7.966;2023-03-05T05:42:22;7.00;;;2.30;;
15946;SDS011;8072;52.554;7.966;2023-03-05T05:44:48;5.33;;;2.30;;
15946;SDS011;8072;52.554;7.966;2023-03-05T05:47:15;4.40;;;2.43;;
15946;SDS011;8072;52.554;7.966;2023-03-05T05:49:41;7.47;;;2.33;;
15946;SDS011;8072;52.554;7.966;2023-03-05T05:52:07;8.47;;;2.30;;
15946;SDS011;8072;52.554;7.966;2023-03-05T05:54:33;10.00;;;2.67;;
15946;SDS011;8072;52.554;7.966;2023-03-05T05:56:59;5.40;;;2.30;;
15946;SDS011;8072;52.554;7.966;2023-03-05T05:59:25;6.83;;;2.00;;
15946;SDS011;8072;52.554;7.966;2023-03-05T06:01:51;6.67;;;2.87;;
15946;SDS011;8072;52.554;7.966;2023-03-05T06:04:17;3.90;;;2.30;;
15946;SDS011;8072;52.554;7.966;2023-03-05T06:06:42;5.47;;;2.27;;
15946;SDS011;8072;52.554;7.966;2023-03-05T06:09:08;4.90;;;2.40;;
15946;SDS011;8072;52.554;7.966;2023-03-05T06:11:34;5.93;;;2.30;;
15946;SDS011;8072;52.554;7.966;2023-03-05T06:14:01;5.13;;;2.83;;
15946;SDS011;8072;52.554;7.966;2023-03-05T06:16:28;5.30;;;2.33;;
15946;SDS011;8072;52.554;7.966;2023-03-05T06:18:54;3.30;;;2.47;;
15946;SDS011;8072;52.554;7.966;2023-03-05T06:21:21;4.43;;;2.40;;
15946;SDS011;8072;52.554;7.966;2023-03-05T06:23:47;4.60;;;2.47;;
15946;SDS011;8072;52.554;7.966;2023-03-05T06:26:16;7.30;;;2.67;;
15946;SDS011;8072;52.554;7.966;2023-03-05T06:28:43;6.20;;;2.63;;
15946;SDS011;8072;52.554;7.966;2023-03-05T06:31:13;9.23;;;3.03;;
15946;SDS011;8072;52.554;7.966;2023-03-05T06:33:41;3.60;;;2.30;;
15946;SDS011;8072;52.554;7.966;2023-03-05T06:36:08;7.93;;;2.30;;
15946;SDS011;8072;52.554;7.966;2023-03-05T06:38:36;4.70;;;2.50;;
15946;SDS011;8072;52.554;7.966;2023-03-05T06:41:06;5.10;;;2.23;;
15946;SDS011;8072;52.554;7.966;2023-03-05T06:43:34;5.27;;;2.50;;
15946;SDS011;8072;52.554;7.966;2023-03-05T06:46:06;6.00;;;2.20;;
15946;SDS011;8072;52.554;7.966;2023-03-05T06:48:43;3.73;;;2.47;;
15946;SDS011;8072;52.554;7.966;2023-03-05T06:51:26;4.77;;;2.50;;
15946;SDS011;8072;52.554;7.966;2023-03-05T06:53:54;4.30;;;2.37;;
15946;SDS011;8072;52.554;7.966;2023-03-05T06:56:23;5.77;;;1.90;;
15946;SDS011;8072;52.554;7.966;2023-03-05T06:58:49;4.97;;;2.30;;
15946;SDS011;8072;52.554;7.966;2023-03-05T07:01:15;9.53;;;2.53;;
15946;SDS011;8072;52.554;7.966;2023-03-05T07:03:42;7.53;;;2.43;;
15946;SDS011;8072;52.554;7.966;2023-03-05T07:06:09;7.53;;;1.80;;
15946;SDS011;8072;52.554;7.966;2023-03-05T07:08:36;4.57;;;2.20;;
15946;SDS011;8072;52.554;7.966;2023-03-05T07:11:03;7.20;;;1.97;;
15946;SDS011;8072;52.554;7.966;2023-03-05T07:13:33;6.97;;;2.30;;
15946;SDS011;8072;52.554;7.966;2023-03-05T07:16:03;5.07;;;2.47;;
15946;SDS011;8072;52.554;7.966;2023-03-05T07:18:29;5.37;;;2.10;;
15946;SDS011;8072;52.554;7.966;2023-03-05T07:20:55;5.87;;;2.33;;
15946;SDS011;8072;52.554;7.966;2023-03-05T07:23:26;6.33;;;2.83;;
15946;SDS011;8072;52.554;7.966;2023-03-05T07:25:52;3.73;;;2.00;;
15946;SDS011;8072;52.554;7.966;2023-03-05T07:28:18;4.07;;;2.00;;
15946;SDS011;8072;52.554;7.966;2023-03-05T07:30:44;4.50;;;2.10;;
15946;SDS011;8072;52.554;7.966;2023-03-05T07:33:09;2.10;;;1.90;;
15946;SDS011;8072;52.554;7.966;2023-03-05T07:35:38;3.10;;;1.93;;
15946;SDS011;8072;52.554;7.966;2023-03-05T07:38:05;5.33;;;1.80;;
15946;SDS011;8072;52.554;7.966;2023-03-05T07:40:30;9.00;;;2.17;;
15946;SDS011;8072;52.554;7.966;2023-03-05T07:42:58;5.57;;;1.73;;
15946;SDS011;8072;52.554;7.966;2023-03-05T07:45:23;4.90;;;2.10;;
15946;SDS011;8072;52.554;7.966;2023-03-05T07:47:49;4.87;;;2.13;;
15946;SDS011;8072;52.554;7.966;2023-03-05T07:50:15;5.07;;;1.90;;
15946;SDS011;8072;52.554;7.966;2023-03-05T07:52:41;5.30;;;2.07;;
15946;SDS011;8072;52.554;7.966;2023-03-05T07:55:07;4.50;;;1.80;;
15946;SDS011;8072;52.554;7.966;2023-03-05T07:57:33;4.43;;;2.17;;
15946;SDS011;8072;52.554;7.966;2023-03-05T08:00:02;4.60;;;1.87;;
15946;SDS011;8072;52.554;7.966;2023-03-05T08:02:29;3.50;;;1.80;;
15946;SDS011;8072;52.554;7.966;2023-03-05T08:04:54;4.93;;;1.90;;
15946;SDS011;8072;52.554;7.966;2023-03-05T08:07:20;2.30;;;1.57;;
15946;SDS011;8072;52.554;7.966;2023-03-05T08:09:46;6.07;;;2.17;;
15946;SDS011;8072;52.554;7.966;2023-03-05T08:12:11;2.43;;;1.60;;
15946;SDS011;8072;52.554;7.966;2023-03-05T08:14:37;6.10;;;2.00;;
15946;SDS011;8072;52.554;7.966;2023-03-05T08:17:04;3.33;;;1.60;;
15946;SDS011;8072;52.554;7.966;2023-03-05T08:19:30;5.03;;;1.80;;
15946;SDS011;8072;52.554;7.966;2023-03-05T08:21:57;2.53;;;1.90;;
15946;SDS011;8072;52.554;7.966;2023-03-05T08:24:22;4.10;;;1.90;;
15946;SDS011;8072;52.554;7.966;2023-03-05T08:26:53;5.47;;;2.00;;
15946;SDS011;8072;52.554;7.966;2023-03-05T08:29:20;4.80;;;2.33;;
15946;SDS011;8072;52.554;7.966;2023-03-05T08:31:46;4.13;;;1.73;;
15946;SDS011;8072;52.554;7.966;2023-03-05T08:34:12;1.93;;;1.70;;
15946;SDS011;8072;52.554;7.966;2023-03-05T08:36:39;6.07;;;2.10;;
15946;SDS011;8072;52.554;7.966;2023-03-05T08:39:04;4.43;;;1.70;;
15946;SDS011;8072;52.554;7.966;2023-03-05T08:41:34;5.50;;;1.90;;
15946;SDS011;8072;52.554;7.966;2023-03-05T08:44:00;2.53;;;1.97;;
15946;SDS011;8072;52.554;7.966;2023-03-05T08:46:25;3.63;;;1.73;;
15946;SDS011;8072;52.554;7.966;2023-03-05T08:48:51;5.67;;;2.30;;
15946;SDS011;8072;52.554;7.966;2023-03-05T08:51:18;4.37;;;1.87;;
15946;SDS011;8072;52.554;7.966;2023-03-05T08:53:46;2.77;;;2.03;;
15946;SDS011;8072;52.554;7.966;2023-03-05T08:56:12;10.30;;;2.57;;
15946;SDS011;8072;52.554;7.966;2023-03-05T08:58:38;3.97;;;2.20;;
15946;SDS011;8072;52.554;7.966;2023-03-05T09:01:04;5.17;;;2.00;;
15946;SDS011;8072;52.554;7.966;2023-03-05T09:03:30;5.77;;;1.90;;
15946;SDS011;8072;52.554;7.966;2023-03-05T09:06:00;6.77;;;1.70;;
15946;SDS011;8072;52.554;7.966;2023-03-05T09:08:26;2.93;;;1.83;;
15946;SDS011;8072;52.554;7.966;2023-03-05T09:10:53;2.40;;;1.70;;
15946;SDS011;8072;52.554;7.966;2023-03-05T09:13:19;2.80;;;1.90;;
15946;SDS011;8072;52.554;7.966;2023-03-05T09:15:45;7.20;;;2.13;;
15946;SDS011;8072;52.554;7.966;2023-03-05T09:18:17;3.00;;;1.80;;
15946;SDS011;8072;52.554;7.966;2023-03-05T09:20:43;4.07;;;1.80;;
15946;SDS011;8072;52.554;7.966;2023-03-05T09:23:09;5.63;;;1.63;;
15946;SDS011;8072;52.554;7.966;2023-03-05T09:25:35;6.40;;;2.10;;
15946;SDS011;8072;52.554;7.966;2023-03-05T09:28:01;6.27;;;1.70;;
15946;SDS011;8072;52.554;7.966;2023-03-05T09:30:26;4.67;;;2.43;;
15946;SDS011;8072;52.554;7.966;2023-03-05T09:32:52;7.23;;;2.23;;
15946;SDS011;8072;52.554;7.966;2023-03-05T09:35:18;2.87;;;1.80;;
15946;SDS011;8072;52.554;7.966;2023-03-05T09:37:43;7.57;;;1.97;;
15946;SDS011;8072;52.554;7.966;2023-03-05T09:40:12;4.57;;;2.03;;
15946;SDS011;8072;52.554;7.966;2023-03-05T09:45:29;4.43;;;1.83;;
15946;SDS011;8072;52.554;7.966;2023-03-05T09:55:46;4.17;;;1.53;;
15946;SDS011;8072;52.554;7.966;2023-03-05T10:00:56;6.80;;;2.07;;
15946;SDS011;8072;52.554;7.966;2023-03-05T10:04:27;4.37;;;2.33;;
15946;SDS011;8072;52.554;7.966;2023-03-05T10:06:23;4.13;;;2.37;;
15946;SDS011;8072;52.554;7.966;2023-03-05T10:09:16;8.00;;;2.90;;
15946;SDS011;8072;52.554;7.966;2023-03-05T10:11:56;3.10;;;2.63;;
15946;SDS011;8072;52.554;7.966;2023-03-05T10:14:31;5.27;;;2.37;;
15946;SDS011;8072;52.554;7.966;2023-03-05T10:28:04;4.83;;;1.77;;
15946;SDS011;8072;52.554;7.966;2023-03-05T10:47:15;5.37;;;1.37;;
15946;SDS011;8072;52.554;7.966;2023-03-05T10:49:56;3.00;;;1.30;;
15946;SDS011;8072;52.554;7.966;2023-03-05T10:52:25;4.43;;;1.43;;
15946;SDS011;8072;52.554;7.966;2023-03-05T10:55:01;3.27;;;1.33;;
15946;SDS011;8072;52.554;7.966;2023-03-05T10:57:41;4.37;;;1.00;;
15946;SDS011;8072;52.554;7.966;2023-03-05T11:02:56;4.23;;;1.20;;
15946;SDS011;8072;52.554;7.966;2023-03-05T11:07:58;5.40;;;1.30;;
15946;SDS011;8072;52.554;7.966;2023-03-05T11:10:24;2.57;;;1.10;;
15946;SDS011;8072;52.554;7.966;2023-03-05T11:12:50;3.57;;;1.23;;
15946;SDS011;8072;52.554;7.966;2023-03-05T11:18:37;3.70;;;1.10;;
15946;SDS011;8072;52.554;7.966;2023-03-05T11:20:45;6.47;;;1.40;;
15946;SDS011;8072;52.554;7.966;2023-03-05T11:23:12;4.50;;;1.43;;
15946;SDS011;8072;52.554;7.966;2023-03-05T11:28:21;5.23;;;1.27;;
15946;SDS011;8072;52.554;7.966;2023-03-05T11:33:24;1.50;;;0.90;;
15946;SDS011;8072;52.554;7.966;2023-03-05T11:35:50;2.53;;;0.90;;
15946;SDS011;8072;52.554;7.966;2023-03-05T11:38:23;2.67;;;1.00;;
15946;SDS011;8072;52.554;7.966;2023-03-05T11:40:54;3.47;;;1.30;;
15946;SDS011;8072;52.554;7.966;2023-03-05T11:43:22;3.73;;;1.27;;
15946;SDS011;8072;52.554;7.966;2023-03-05T11:45:50;2.03;;;1.20;;
15946;SDS011;8072;52.554;7.966;2023-03-05T11:48:23;5.40;;;1.30;;
15946;SDS011;8072;52.554;7.966;2023-03-05T11:51:27;4.47;;;1.27;;
15946;SDS011;8072;52.554;7.966;2023-03-05T11:54:05;5.67;;;1.30;;
15946;SDS011;8072;52.554;7.966;2023-03-05T11:56:38;3.17;;;1.10;;
15946;SDS011;8072;52.554;7.966;2023-03-05T11:59:13;2.47;;;1.20;;
15946;SDS011;8072;52.554;7.966;2023-03-05T12:01:47;2.57;;;1.20;;
15946;SDS011;8072;52.554;7.966;2023-03-05T12:04:15;2.10;;;1.23;;
15946;SDS011;8072;52.554;7.966;2023-03-05T12:06:46;4.13;;;1.57;;
15946;SDS011;8072;52.554;7.966;2023-03-05T12:11:51;8.97;;;1.83;;
15946;SDS011;8072;52.554;7.966;2023-03-05T12:14:32;5.13;;;1.33;;
15946;SDS011;8072;52.554;7.966;2023-03-05T12:17:08;7.00;;;1.50;;
15946;SDS011;8072;52.554;7.966;2023-03-05T12:22:20;2.93;;;1.30;;
15946;SDS011;8072;52.554;7.966;2023-03-05T12:24:48;2.23;;;1.10;;
15946;SDS011;8072;52.554;7.966;2023-03-05T12:27:15;4.67;;;1.33;;
15946;SDS011;8072;52.554;7.966;2023-03-05T12:29:57;1.77;;;1.10;;
15946;SDS011;8072;52.554;7.966;2023-03-05T12:34:58;2.00;;;1.20;;
15946;SDS011;8072;52.554;7.966;2023-03-05T12:50:45;3.97;;;1.17;;
15946;SDS011;8072;52.554;7.966;2023-03-05T12:53:16;3.27;;;1.00;;
15946;SDS011;8072;52.554;7.966;2023-03-05T12:58:17;4.03;;;1.03;;
15946;SDS011;8072;52.554;7.966;2023-03-05T13:03:35;2.63;;;1.27;;
15946;SDS011;8072;52.554;7.966;2023-03-05T13:09:00;2.67;;;1.20;;
15946;SDS011;8072;52.554;7.966;2023-03-05T13:11:28;2.77;;;1.10;;
15946;SDS011;8072;52.554;7.966;2023-03-05T13:13:56;2.50;;;1.50;;
15946;SDS011;8072;52.554;7.966;2023-03-05T13:16:29;2.97;;;1.40;;
15946;SDS011;8072;52.554;7.966;2023-03-05T13:19:01;4.50;;;1.43;;
15946;SDS011;8072;52.554;7.966;2023-03-05T13:21:32;2.07;;;0.90;;
15946;SDS011;8072;52.554;7.966;2023-03-05T13:24:00;2.90;;;1.20;;
15946;SDS011;8072;52.554;7.966;2023-03-05T13:26:35;3.37;;;0.80;;
15946;SDS011;8072;52.554;7.966;2023-03-05T13:29:15;1.30;;;0.83;;
15946;SDS011;8072;52.554;7.966;2023-03-05T13:31:54;1.83;;;1.00;;
15946;SDS011;8072;52.554;7.966;2023-03-05T13:34:29;1.53;;;0.93;;
15946;SDS011;8072;52.554;7.966;2023-03-05T13:39:36;5.27;;;1.20;;
15946;SDS011;8072;52.554;7.966;2023-03-05T13:44:41;4.37;;;1.20;;
15946;SDS011;8072;52.554;7.966;2023-03-05T13:47:18;1.37;;;1.10;;
15946;SDS011;8072;52.554;7.966;2023-03-05T13:49:45;0.80;;;0.80;;
15946;SDS011;8072;52.554;7.966;2023-03-05T13:52:11;5.50;;;1.20;;
15946;SDS011;8072;52.554;7.966;2023-03-05T13:54:52;3.53;;;1.10;;
15946;SDS011;8072;52.554;7.966;2023-03-05T14:03:40;2.97;;;1.27;;
15946;SDS011;8072;52.554;7.966;2023-03-05T14:05:48;0.90;;;0.90;;
15946;SDS011;8072;52.554;7.966;2023-03-05T14:08:19;2.83;;;0.97;;
15946;SDS011;8072;52.554;7.966;2023-03-05T14:10:48;1.17;;;0.93;;
15946;SDS011;8072;52.554;7.966;2023-03-05T14:13:21;3.30;;;1.20;;
15946;SDS011;8072;52.554;7.966;2023-03-05T14:18:33;3.73;;;1.10;;
15946;SDS011;8072;52.554;7.966;2023-03-05T14:21:10;3.27;;;0.97;;
15946;SDS011;8072;52.554;7.966;2023-03-05T14:26:31;2.73;;;1.07;;
15946;SDS011;8072;52.554;7.966;2023-03-05T14:29:00;3.83;;;1.10;;
15946;SDS011;8072;52.554;7.966;2023-03-05T14:31:29;2.40;;;1.00;;
15946;SDS011;8072;52.554;7.966;2023-03-05T14:34:02;2.53;;;1.20;;
15946;SDS011;8072;52.554;7.966;2023-03-05T14:36:30;3.03;;;1.20;;
15946;SDS011;8072;52.554;7.966;2023-03-05T14:38:57;2.93;;;1.10;;
15946;SDS011;8072;52.554;7.966;2023-03-05T14:44:08;1.50;;;0.73;;
15946;SDS011;8072;52.554;7.966;2023-03-05T14:46:40;2.00;;;1.10;;
15946;SDS011;8072;52.554;7.966;2023-03-05T14:49:06;2.17;;;0.97;;
15946;SDS011;8072;52.554;7.966;2023-03-05T14:51:32;3.80;;;1.10;;
15946;SDS011;8072;52.554;7.966;2023-03-05T14:54:03;2.50;;;0.90;;
15946;SDS011;8072;52.554;7.966;2023-03-05T14:56:29;2.53;;;0.93;;
15946;SDS011;8072;52.554;7.966;2023-03-05T14:58:56;2.03;;;1.00;;
15946;SDS011;8072;52.554;7.966;2023-03-05T15:01:22;1.73;;;0.80;;
15946;SDS011;8072;52.554;7.966;2023-03-05T15:03:49;3.13;;;1.20;;
15946;SDS011;8072;52.554;7.966;2023-03-05T15:06:31;1.10;;;1.00;;
15946;SDS011;8072;52.554;7.966;2023-03-05T15:09:00;1.67;;;1.13;;
15946;SDS011;8072;52.554;7.966;2023-03-05T15:11:26;5.00;;;1.13;;
15946;SDS011;8072;52.554;7.966;2023-03-05T15:13:52;4.47;;;1.60;;
15946;SDS011;8072;52.554;7.966;2023-03-05T15:16:17;5.00;;;1.57;;
15946;SDS011;8072;52.554;7.966;2023-03-05T15:18:44;3.13;;;1.40;;
15946;SDS011;8072;52.554;7.966;2023-03-05T15:21:10;3.90;;;1.93;;
15946;SDS011;8072;52.554;7.966;2023-03-05T15:23:36;3.03;;;1.37;;
15946;SDS011;8072;52.554;7.966;2023-03-05T15:26:06;2.00;;;1.50;;
15946;SDS011;8072;52.554;7.966;2023-03-05T15:28:34;2.13;;;1.20;;
15946;SDS011;8072;52.554;7.966;2023-03-05T15:31:01;4.13;;;1.50;;
15946;SDS011;8072;52.554;7.966;2023-03-05T15:33:28;5.20;;;2.50;;
15946;SDS011;8072;52.554;7.966;2023-03-05T15:35:54;3.27;;;1.70;;
15946;SDS011;8072;52.554;7.966;2023-03-05T15:38:20;3.83;;;1.50;;
15946;SDS011;8072;52.554;7.966;2023-03-05T15:40:46;2.70;;;1.50;;
15946;SDS011;8072;52.554;7.966;2023-03-05T15:43:13;2.83;;;2.00;;
15946;SDS011;8072;52.554;7.966;2023-03-05T15:45:40;4.33;;;1.80;;
15946;SDS011;8072;52.554;7.966;2023-03-05T15:48:06;2.73;;;1.90;;
15946;SDS011;8072;52.554;7.966;2023-03-05T15:50:32;2.10;;;1.60;;
15946;SDS011;8072;52.554;7.966;2023-03-05T15:52:58;2.53;;;1.83;;
15946;SDS011;8072;52.554;7.966;2023-03-05T15:55:24;4.57;;;1.60;;
15946;SDS011;8072;52.554;7.966;2023-03-05T15:57:50;1.53;;;1.20;;
15946;SDS011;8072;52.554;7.966;2023-03-05T16:00:19;3.40;;;1.30;;
15946;SDS011;8072;52.554;7.966;2023-03-05T16:02:49;1.80;;;1.20;;
15946;SDS011;8072;52.554;7.966;2023-03-05T16:05:15;1.40;;;1.30;;
15946;SDS011;8072;52.554;7.966;2023-03-05T16:07:41;2.17;;;1.10;;
15946;SDS011;8072;52.554;7.966;2023-03-05T16:10:10;1.83;;;1.07;;
15946;SDS011;8072;52.554;7.966;2023-03-05T16:12:38;1.43;;;1.10;;
15946;SDS011;8072;52.554;7.966;2023-03-05T16:15:10;2.70;;;1.30;;
15946;SDS011;8072;52.554;7.966;2023-03-05T16:17:37;3.10;;;1.20;;
15946;SDS011;8072;52.554;7.966;2023-03-05T16:20:04;1.30;;;1.10;;
15946;SDS011;8072;52.554;7.966;2023-03-05T16:22:30;2.67;;;1.17;;
15946;SDS011;8072;52.554;7.966;2023-03-05T16:24:56;1.27;;;1.10;;
15946;SDS011;8072;52.554;7.966;2023-03-05T16:27:23;1.27;;;1.17;;
15946;SDS011;8072;52.554;7.966;2023-03-05T16:29:49;7.47;;;1.30;;
15946;SDS011;8072;52.554;7.966;2023-03-05T16:32:15;6.77;;;1.57;;
15946;SDS011;8072;52.554;7.966;2023-03-05T16:34:42;3.87;;;1.10;;
15946;SDS011;8072;52.554;7.966;2023-03-05T16:37:08;1.87;;;1.30;;
15946;SDS011;8072;52.554;7.966;2023-03-05T16:39:33;2.43;;;1.47;;
15946;SDS011;8072;52.554;7.966;2023-03-05T16:41:59;1.63;;;1.20;;
15946;SDS011;8072;52.554;7.966;2023-03-05T16:44:25;2.00;;;1.50;;
15946;SDS011;8072;52.554;7.966;2023-03-05T16:46:51;2.73;;;1.30;;
15946;SDS011;8072;52.554;7.966;2023-03-05T16:49:20;3.60;;;1.27;;
15946;SDS011;8072;52.554;7.966;2023-03-05T16:51:46;2.67;;;1.40;;